sensor_id;sensor_type;location;lat;lon;timestamp;P1;durP1;ratioP1;P2;durP2;ratioP2
50559;SDS011;36510;52.610;13.468;2022-10-16T00:01:52;4.60;;;4.13;;
50559;SDS011;36510;52.610;13.468;2022-10-16T00:06:43;5.03;;;4.25;;
50559;SDS011;36510;52.610;13.468;2022-10-16T00:11:35;4.20;;;3.60;;
50559;SDS011;36510;52.610;13.468;2022-10-16T00:16:27;4.50;;;3.28;;
50559;SDS011;36510;52.610;13.468;2022-10-16T00:21:19;3.90;;;3.20;;
50559;SDS011;36510;52.610;13.468;2022-10-16T00:26:17;3.20;;;2.90;;
50559;SDS011;36510;52.610;13.468;2022-10-16T00:31:10;3.50;;;3.20;;
50559;SDS011;36510;52.610;13.468;2022-10-16T00:36:02;3.60;;;3.13;;
50559;SDS011;36510;52.610;13.468;2022-10-16T00:40:54;3.20;;;2.70;;
50559;SDS011;36510;52.610;13.468;2022-10-16T00:45:45;2.75;;;2.53;;
50559;SDS011;36510;52.610;13.468;2022-10-16T00:50:35;2.70;;;2.45;;
50559;SDS011;36510;52.610;13.468;2022-10-16T00:55:26;3.20;;;2.20;;
50559;SDS011;36510;52.610;13.468;2022-10-16T01:00:21;2.78;;;2.20;;
50559;SDS011;36510;52.610;13.468;2022-10-16T01:05:12;4.45;;;2.50;;
50559;SDS011;36510;52.610;13.468;2022-10-16T01:10:25;2.70;;;2.00;;
50559;SDS011;36510;52.610;13.468;2022-10-16T01:15:46;2.90;;;2.13;;
50559;SDS011;36510;52.610;13.468;2022-10-16T01:21:36;2.83;;;2.00;;
50559;SDS011;36510;52.610;13.468;2022-10-16T01:26:15;2.92;;;1.80;;
50559;SDS011;36510;52.610;13.468;2022-10-16T01:31:24;4.07;;;1.88;;
50559;SDS011;36510;52.610;13.468;2022-10-16T01:36:18;2.00;;;1.80;;
50559;SDS011;36510;52.610;13.468;2022-10-16T01:41:18;2.33;;;2.00;;
50559;SDS011;36510;52.610;13.468;2022-10-16T01:46:24;2.30;;;1.80;;
50559;SDS011;36510;52.610;13.468;2022-10-16T01:51:16;3.22;;;2.15;;
50559;SDS011;36510;52.610;13.468;2022-10-16T01:56:09;2.75;;;1.80;;
50559;SDS011;36510;52.610;13.468;2022-10-16T02:01:03;3.22;;;1.95;;
50559;SDS011;36510;52.610;13.468;2022-10-16T02:05:57;2.75;;;1.83;;
50559;SDS011;36510;52.610;13.468;2022-10-16T02:10:48;4.40;;;2.22;;
50559;SDS011;36510;52.610;13.468;2022-10-16T02:15:39;3.00;;;2.22;;
50559;SDS011;36510;52.610;13.468;2022-10-16T02:20:32;2.33;;;2.10;;
50559;SDS011;36510;52.610;13.468;2022-10-16T02:25:36;2.45;;;1.80;;
50559;SDS011;36510;52.610;13.468;2022-10-16T02:30:32;2.30;;;1.90;;
50559;SDS011;36510;52.610;13.468;2022-10-16T02:35:26;2.25;;;2.05;;
50559;SDS011;36510;52.610;13.468;2022-10-16T02:40:18;2.30;;;1.90;;
50559;SDS011;36510;52.610;13.468;2022-10-16T02:45:10;2.10;;;1.90;;
50559;SDS011;36510;52.610;13.468;2022-10-16T02:50:02;3.03;;;1.90;;
50559;SDS011;36510;52.610;13.468;2022-10-16T02:54:53;2.97;;;1.98;;
50559;SDS011;36510;52.610;13.468;2022-10-16T02:59:44;2.40;;;1.98;;
50559;SDS011;36510;52.610;13.468;2022-10-16T03:04:35;2.70;;;1.60;;
50559;SDS011;36510;52.610;13.468;2022-10-16T03:09:25;2.20;;;2.00;;
50559;SDS011;36510;52.610;13.468;2022-10-16T03:14:16;2.60;;;1.98;;
50559;SDS011;36510;52.610;13.468;2022-10-16T03:19:06;2.70;;;1.75;;
50559;SDS011;36510;52.610;13.468;2022-10-16T03:23:57;2.65;;;2.00;;
50559;SDS011;36510;52.610;13.468;2022-10-16T03:28:47;2.88;;;1.90;;
50559;SDS011;36510;52.610;13.468;2022-10-16T03:33:38;2.95;;;2.00;;
50559;SDS011;36510;52.610;13.468;2022-10-16T03:38:28;3.67;;;2.10;;
50559;SDS011;36510;52.610;13.468;2022-10-16T03:43:18;2.88;;;2.40;;
50559;SDS011;36510;52.610;13.468;2022-10-16T03:48:09;2.42;;;2.20;;
50559;SDS011;36510;52.610;13.468;2022-10-16T03:53:00;3.78;;;2.40;;
50559;SDS011;36510;52.610;13.468;2022-10-16T03:57:51;3.78;;;2.58;;
50559;SDS011;36510;52.610;13.468;2022-10-16T04:02:41;3.47;;;2.25;;
50559;SDS011;36510;52.610;13.468;2022-10-16T04:07:32;3.35;;;2.40;;
50559;SDS011;36510;52.610;13.468;2022-10-16T04:12:22;2.30;;;2.10;;
50559;SDS011;36510;52.610;13.468;2022-10-16T04:17:13;2.63;;;2.20;;
50559;SDS011;36510;52.610;13.468;2022-10-16T04:22:03;3.72;;;2.67;;
50559;SDS011;36510;52.610;13.468;2022-10-16T04:26:53;3.13;;;2.40;;
50559;SDS011;36510;52.610;13.468;2022-10-16T04:31:44;2.53;;;2.17;;
50559;SDS011;36510;52.610;13.468;2022-10-16T04:36:34;4.25;;;2.28;;
50559;SDS011;36510;52.610;13.468;2022-10-16T04:41:25;2.60;;;2.25;;
50559;SDS011;36510;52.610;13.468;2022-10-16T04:46:15;3.60;;;2.40;;
50559;SDS011;36510;52.610;13.468;2022-10-16T04:51:06;2.60;;;2.40;;
50559;SDS011;36510;52.610;13.468;2022-10-16T04:55:56;3.22;;;2.38;;
50559;SDS011;36510;52.610;13.468;2022-10-16T05:00:47;2.95;;;2.58;;
50559;SDS011;36510;52.610;13.468;2022-10-16T05:05:41;3.10;;;2.70;;
50559;SDS011;36510;52.610;13.468;2022-10-16T05:10:33;2.75;;;2.53;;
50559;SDS011;36510;52.610;13.468;2022-10-16T05:15:24;3.90;;;2.47;;
50559;SDS011;36510;52.610;13.468;2022-10-16T05:20:15;3.35;;;2.50;;
50559;SDS011;36510;52.610;13.468;2022-10-16T05:25:05;4.30;;;2.70;;
50559;SDS011;36510;52.610;13.468;2022-10-16T05:29:56;3.80;;;3.17;;
50559;SDS011;36510;52.610;13.468;2022-10-16T05:34:46;3.17;;;2.83;;
50559;SDS011;36510;52.610;13.468;2022-10-16T05:39:37;5.97;;;3.05;;
50559;SDS011;36510;52.610;13.468;2022-10-16T05:44:28;4.80;;;3.85;;
50559;SDS011;36510;52.610;13.468;2022-10-16T05:49:18;5.32;;;3.88;;
50559;SDS011;36510;52.610;13.468;2022-10-16T05:54:09;5.53;;;3.88;;
50559;SDS011;36510;52.610;13.468;2022-10-16T05:59:00;5.20;;;3.17;;
50559;SDS011;36510;52.610;13.468;2022-10-16T06:03:51;3.38;;;2.75;;
50559;SDS011;36510;52.610;13.468;2022-10-16T06:08:42;5.07;;;3.05;;
50559;SDS011;36510;52.610;13.468;2022-10-16T06:13:35;3.10;;;2.80;;
50559;SDS011;36510;52.610;13.468;2022-10-16T06:18:26;4.25;;;3.42;;
50559;SDS011;36510;52.610;13.468;2022-10-16T06:23:17;4.07;;;3.38;;
50559;SDS011;36510;52.610;13.468;2022-10-16T06:28:08;3.70;;;3.40;;
50559;SDS011;36510;52.610;13.468;2022-10-16T06:32:58;4.75;;;3.15;;
50559;SDS011;36510;52.610;13.468;2022-10-16T06:37:49;3.65;;;3.33;;
50559;SDS011;36510;52.610;13.468;2022-10-16T06:42:39;4.05;;;3.65;;
50559;SDS011;36510;52.610;13.468;2022-10-16T06:47:30;5.20;;;3.45;;
50559;SDS011;36510;52.610;13.468;2022-10-16T06:52:20;3.90;;;3.50;;
50559;SDS011;36510;52.610;13.468;2022-10-16T06:57:11;4.15;;;3.38;;
50559;SDS011;36510;52.610;13.468;2022-10-16T07:02:01;4.90;;;3.45;;
50559;SDS011;36510;52.610;13.468;2022-10-16T07:06:52;3.65;;;3.35;;
50559;SDS011;36510;52.610;13.468;2022-10-16T07:11:42;4.53;;;3.60;;
50559;SDS011;36510;52.610;13.468;2022-10-16T07:16:33;3.65;;;3.28;;
50559;SDS011;36510;52.610;13.468;2022-10-16T07:21:23;4.20;;;3.50;;
50559;SDS011;36510;52.610;13.468;2022-10-16T07:26:18;5.65;;;3.85;;
50559;SDS011;36510;52.610;13.468;2022-10-16T07:31:10;4.13;;;3.58;;
50559;SDS011;36510;52.610;13.468;2022-10-16T07:36:01;3.53;;;3.22;;
50559;SDS011;36510;52.610;13.468;2022-10-16T07:40:55;4.50;;;3.65;;
50559;SDS011;36510;52.610;13.468;2022-10-16T07:45:50;4.40;;;3.53;;
50559;SDS011;36510;52.610;13.468;2022-10-16T07:50:41;3.25;;;2.90;;
50559;SDS011;36510;52.610;13.468;2022-10-16T07:55:31;4.03;;;3.42;;
50559;SDS011;36510;52.610;13.468;2022-10-16T08:00:22;2.75;;;2.50;;
50559;SDS011;36510;52.610;13.468;2022-10-16T08:05:12;4.05;;;2.85;;
50559;SDS011;36510;52.610;13.468;2022-10-16T08:10:03;4.25;;;3.10;;
50559;SDS011;36510;52.610;13.468;2022-10-16T08:14:54;4.85;;;2.63;;
50559;SDS011;36510;52.610;13.468;2022-10-16T08:19:45;2.95;;;2.60;;
50559;SDS011;36510;52.610;13.468;2022-10-16T08:24:35;4.60;;;2.50;;
50559;SDS011;36510;52.610;13.468;2022-10-16T08:29:26;3.75;;;2.22;;
50559;SDS011;36510;52.610;13.468;2022-10-16T08:34:17;2.83;;;2.25;;
50559;SDS011;36510;52.610;13.468;2022-10-16T08:39:07;2.50;;;2.20;;
50559;SDS011;36510;52.610;13.468;2022-10-16T08:44:17;3.42;;;1.70;;
50559;SDS011;36510;52.610;13.468;2022-10-16T08:49:26;3.58;;;1.70;;
50559;SDS011;36510;52.610;13.468;2022-10-16T08:54:21;2.63;;;1.85;;
50559;SDS011;36510;52.610;13.468;2022-10-16T08:59:18;2.58;;;1.90;;
50559;SDS011;36510;52.610;13.468;2022-10-16T09:14:47;2.53;;;1.80;;
50559;SDS011;36510;52.610;13.468;2022-10-16T09:19:51;2.60;;;1.80;;
50559;SDS011;36510;52.610;13.468;2022-10-16T09:24:48;2.25;;;1.70;;
50559;SDS011;36510;52.610;13.468;2022-10-16T09:29:39;5.03;;;1.92;;
50559;SDS011;36510;52.610;13.468;2022-10-16T09:34:31;3.50;;;1.50;;
50559;SDS011;36510;52.610;13.468;2022-10-16T09:39:25;2.38;;;1.80;;
50559;SDS011;36510;52.610;13.468;2022-10-16T09:44:18;4.40;;;1.90;;
50559;SDS011;36510;52.610;13.468;2022-10-16T09:49:23;1.58;;;1.48;;
50559;SDS011;36510;52.610;13.468;2022-10-16T09:54:19;2.75;;;1.67;;
50559;SDS011;36510;52.610;13.468;2022-10-16T09:59:11;2.28;;;1.58;;
50559;SDS011;36510;52.610;13.468;2022-10-16T10:04:04;1.58;;;1.40;;
50559;SDS011;36510;52.610;13.468;2022-10-16T10:18:59;3.90;;;1.60;;
50559;SDS011;36510;52.610;13.468;2022-10-16T10:23:56;3.55;;;1.75;;
50559;SDS011;36510;52.610;13.468;2022-10-16T10:29:08;1.95;;;1.40;;
50559;SDS011;36510;52.610;13.468;2022-10-16T10:39:25;1.67;;;1.30;;
50559;SDS011;36510;52.610;13.468;2022-10-16T10:49:48;3.20;;;1.42;;
50559;SDS011;36510;52.610;13.468;2022-10-16T11:00:27;1.73;;;1.10;;
50559;SDS011;36510;52.610;13.468;2022-10-16T11:05:38;3.60;;;1.30;;
50559;SDS011;36510;52.610;13.468;2022-10-16T11:10:42;2.33;;;1.30;;
50559;SDS011;36510;52.610;13.468;2022-10-16T11:15:40;3.25;;;1.15;;
50559;SDS011;36510;52.610;13.468;2022-10-16T11:25:56;1.88;;;1.10;;
50559;SDS011;36510;52.610;13.468;2022-10-16T11:41:32;2.67;;;1.00;;
50559;SDS011;36510;52.610;13.468;2022-10-16T11:46:25;3.35;;;1.10;;
50559;SDS011;36510;52.610;13.468;2022-10-16T11:56:29;3.65;;;1.00;;
50559;SDS011;36510;52.610;13.468;2022-10-16T12:11:38;3.92;;;1.50;;
50559;SDS011;36510;52.610;13.468;2022-10-16T12:16:29;2.17;;;0.80;;
50559;SDS011;36510;52.610;13.468;2022-10-16T12:21:19;1.67;;;1.05;;
50559;SDS011;36510;52.610;13.468;2022-10-16T12:26:24;1.63;;;0.70;;
50559;SDS011;36510;52.610;13.468;2022-10-16T12:31:15;2.20;;;0.90;;
50559;SDS011;36510;52.610;13.468;2022-10-16T12:36:16;1.70;;;1.30;;
50559;SDS011;36510;52.610;13.468;2022-10-16T12:41:25;1.63;;;0.70;;
50559;SDS011;36510;52.610;13.468;2022-10-16T12:51:19;1.75;;;0.73;;
50559;SDS011;36510;52.610;13.468;2022-10-16T12:56:16;0.93;;;0.65;;
50559;SDS011;36510;52.610;13.468;2022-10-16T13:12:18;3.00;;;0.73;;
50559;SDS011;36510;52.610;13.468;2022-10-16T13:17:52;2.60;;;0.60;;
50559;SDS011;36510;52.610;13.468;2022-10-16T13:23:15;2.20;;;0.75;;
50559;SDS011;36510;52.610;13.468;2022-10-16T13:28:22;1.05;;;0.68;;
50559;SDS011;36510;52.610;13.468;2022-10-16T13:38:26;1.05;;;0.65;;
50559;SDS011;36510;52.610;13.468;2022-10-16T13:43:23;2.08;;;0.90;;
50559;SDS011;36510;52.610;13.468;2022-10-16T13:48:35;0.95;;;0.50;;
50559;SDS011;36510;52.610;13.468;2022-10-16T13:53:26;0.70;;;0.43;;
50559;SDS011;36510;52.610;13.468;2022-10-16T13:58:16;1.40;;;0.50;;
50559;SDS011;36510;52.610;13.468;2022-10-16T14:03:11;1.08;;;0.73;;
50559;SDS011;36510;52.610;13.468;2022-10-16T14:08:04;0.52;;;0.40;;
50559;SDS011;36510;52.610;13.468;2022-10-16T14:12:56;1.35;;;0.65;;
50559;SDS011;36510;52.610;13.468;2022-10-16T14:17:51;1.02;;;0.55;;
50559;SDS011;36510;52.610;13.468;2022-10-16T14:22:43;0.70;;;0.60;;
50559;SDS011;36510;52.610;13.468;2022-10-16T14:27:34;1.75;;;0.57;;
50559;SDS011;36510;52.610;13.468;2022-10-16T14:32:27;0.90;;;0.70;;
50559;SDS011;36510;52.610;13.468;2022-10-16T14:37:24;3.20;;;2.25;;
50559;SDS011;36510;52.610;13.468;2022-10-16T14:42:20;1.23;;;0.90;;
50559;SDS011;36510;52.610;13.468;2022-10-16T14:47:19;0.98;;;0.70;;
50559;SDS011;36510;52.610;13.468;2022-10-16T14:52:14;0.88;;;0.70;;
50559;SDS011;36510;52.610;13.468;2022-10-16T14:57:05;1.50;;;0.88;;
50559;SDS011;36510;52.610;13.468;2022-10-16T15:02:15;1.75;;;0.80;;
50559;SDS011;36510;52.610;13.468;2022-10-16T15:07:10;4.38;;;0.80;;
50559;SDS011;36510;52.610;13.468;2022-10-16T15:12:01;1.38;;;0.77;;
50559;SDS011;36510;52.610;13.468;2022-10-16T15:16:51;1.25;;;0.80;;
50559;SDS011;36510;52.610;13.468;2022-10-16T15:21:42;2.05;;;0.90;;
50559;SDS011;36510;52.610;13.468;2022-10-16T15:26:33;1.27;;;1.00;;
50559;SDS011;36510;52.610;13.468;2022-10-16T15:31:24;2.55;;;1.02;;
50559;SDS011;36510;52.610;13.468;2022-10-16T15:36:14;1.80;;;1.00;;
50559;SDS011;36510;52.610;13.468;2022-10-16T15:41:05;1.40;;;1.10;;
50559;SDS011;36510;52.610;13.468;2022-10-16T15:46:03;1.30;;;0.90;;
50559;SDS011;36510;52.610;13.468;2022-10-16T15:50:55;2.25;;;1.10;;
50559;SDS011;36510;52.610;13.468;2022-10-16T15:55:46;1.80;;;1.20;;
50559;SDS011;36510;52.610;13.468;2022-10-16T16:00:37;3.20;;;1.20;;
50559;SDS011;36510;52.610;13.468;2022-10-16T16:05:28;2.45;;;1.20;;
50559;SDS011;36510;52.610;13.468;2022-10-16T16:10:18;2.25;;;1.55;;
50559;SDS011;36510;52.610;13.468;2022-10-16T16:15:10;2.63;;;1.52;;
50559;SDS011;36510;52.610;13.468;2022-10-16T16:20:01;6.22;;;2.85;;
50559;SDS011;36510;52.610;13.468;2022-10-16T16:24:53;4.10;;;2.13;;
50559;SDS011;36510;52.610;13.468;2022-10-16T16:29:44;2.03;;;1.45;;
50559;SDS011;36510;52.610;13.468;2022-10-16T16:34:34;2.13;;;1.40;;
50559;SDS011;36510;52.610;13.468;2022-10-16T16:39:25;2.40;;;1.73;;
50559;SDS011;36510;52.610;13.468;2022-10-16T16:44:16;4.07;;;2.20;;
50559;SDS011;36510;52.610;13.468;2022-10-16T16:49:06;2.40;;;1.70;;
50559;SDS011;36510;52.610;13.468;2022-10-16T16:53:57;2.50;;;1.90;;
50559;SDS011;36510;52.610;13.468;2022-10-16T16:58:48;3.55;;;2.22;;
50559;SDS011;36510;52.610;13.468;2022-10-16T17:03:41;4.25;;;2.70;;
50559;SDS011;36510;52.610;13.468;2022-10-16T17:08:36;2.63;;;2.30;;
50559;SDS011;36510;52.610;13.468;2022-10-16T17:13:28;3.25;;;2.40;;
50559;SDS011;36510;52.610;13.468;2022-10-16T17:18:21;5.72;;;2.70;;
50559;SDS011;36510;52.610;13.468;2022-10-16T17:23:14;3.28;;;2.53;;
50559;SDS011;36510;52.610;13.468;2022-10-16T17:28:05;3.70;;;3.05;;
50559;SDS011;36510;52.610;13.468;2022-10-16T17:32:56;6.57;;;4.13;;
50559;SDS011;36510;52.610;13.468;2022-10-16T17:37:47;6.75;;;4.38;;
50559;SDS011;36510;52.610;13.468;2022-10-16T17:42:39;7.93;;;6.82;;
50559;SDS011;36510;52.610;13.468;2022-10-16T17:47:30;10.68;;;9.02;;
50559;SDS011;36510;52.610;13.468;2022-10-16T17:52:21;9.18;;;6.85;;
50559;SDS011;36510;52.610;13.468;2022-10-16T17:57:12;6.55;;;5.38;;
50559;SDS011;36510;52.610;13.468;2022-10-16T18:02:03;5.43;;;3.78;;
50559;SDS011;36510;52.610;13.468;2022-10-16T18:06:54;5.93;;;4.07;;
50559;SDS011;36510;52.610;13.468;2022-10-16T18:11:45;5.70;;;4.80;;
50559;SDS011;36510;52.610;13.468;2022-10-16T18:16:38;5.95;;;4.90;;
50559;SDS011;36510;52.610;13.468;2022-10-16T18:21:28;7.05;;;5.57;;
50559;SDS011;36510;52.610;13.468;2022-10-16T18:26:20;8.93;;;6.60;;
50559;SDS011;36510;52.610;13.468;2022-10-16T18:31:12;11.77;;;7.57;;
50559;SDS011;36510;52.610;13.468;2022-10-16T18:36:08;13.25;;;9.02;;
50559;SDS011;36510;52.610;13.468;2022-10-16T18:40:59;26.60;;;20.35;;
50559;SDS011;36510;52.610;13.468;2022-10-16T18:45:55;25.75;;;20.65;;
50559;SDS011;36510;52.610;13.468;2022-10-16T18:50:51;24.23;;;20.17;;
50559;SDS011;36510;52.610;13.468;2022-10-16T18:55:41;20.85;;;15.73;;
50559;SDS011;36510;52.610;13.468;2022-10-16T19:00:32;19.98;;;16.17;;
50559;SDS011;36510;52.610;13.468;2022-10-16T19:05:23;17.52;;;15.07;;
50559;SDS011;36510;52.610;13.468;2022-10-16T19:10:13;14.77;;;12.98;;
50559;SDS011;36510;52.610;13.468;2022-10-16T19:15:04;15.85;;;13.50;;
50559;SDS011;36510;52.610;13.468;2022-10-16T19:19:55;14.07;;;12.48;;
50559;SDS011;36510;52.610;13.468;2022-10-16T19:24:46;17.02;;;13.73;;
50559;SDS011;36510;52.610;13.468;2022-10-16T19:29:36;18.95;;;14.52;;
50559;SDS011;36510;52.610;13.468;2022-10-16T19:34:30;17.08;;;14.23;;
50559;SDS011;36510;52.610;13.468;2022-10-16T19:39:20;18.08;;;14.85;;
50559;SDS011;36510;52.610;13.468;2022-10-16T19:44:13;16.75;;;13.85;;
50559;SDS011;36510;52.610;13.468;2022-10-16T19:49:07;19.20;;;15.35;;
50559;SDS011;36510;52.610;13.468;2022-10-16T19:54:00;16.15;;;13.20;;
50559;SDS011;36510;52.610;13.468;2022-10-16T19:58:53;16.40;;;12.15;;
50559;SDS011;36510;52.610;13.468;2022-10-16T20:03:46;14.07;;;11.75;;
50559;SDS011;36510;52.610;13.468;2022-10-16T20:08:38;14.65;;;10.70;;
50559;SDS011;36510;52.610;13.468;2022-10-16T20:13:30;11.25;;;9.77;;
50559;SDS011;36510;52.610;13.468;2022-10-16T20:18:20;9.18;;;7.97;;
50559;SDS011;36510;52.610;13.468;2022-10-16T20:23:11;10.38;;;8.05;;
50559;SDS011;36510;52.610;13.468;2022-10-16T20:28:02;13.88;;;9.60;;
50559;SDS011;36510;52.610;13.468;2022-10-16T20:32:54;10.20;;;9.10;;
50559;SDS011;36510;52.610;13.468;2022-10-16T20:37:45;10.65;;;8.70;;
50559;SDS011;36510;52.610;13.468;2022-10-16T20:42:37;11.43;;;9.45;;
50559;SDS011;36510;52.610;13.468;2022-10-16T20:47:28;11.27;;;9.70;;
50559;SDS011;36510;52.610;13.468;2022-10-16T20:52:18;11.45;;;9.80;;
50559;SDS011;36510;52.610;13.468;2022-10-16T20:57:09;15.45;;;10.52;;
50559;SDS011;36510;52.610;13.468;2022-10-16T21:01:59;13.32;;;11.48;;
50559;SDS011;36510;52.610;13.468;2022-10-16T21:06:50;11.95;;;9.65;;
50559;SDS011;36510;52.610;13.468;2022-10-16T21:11:40;11.68;;;9.10;;
50559;SDS011;36510;52.610;13.468;2022-10-16T21:16:31;11.30;;;9.15;;
50559;SDS011;36510;52.610;13.468;2022-10-16T21:21:26;11.73;;;9.32;;
50559;SDS011;36510;52.610;13.468;2022-10-16T21:26:19;11.93;;;9.15;;
50559;SDS011;36510;52.610;13.468;2022-10-16T21:31:16;11.48;;;8.68;;
50559;SDS011;36510;52.610;13.468;2022-10-16T21:36:19;9.35;;;8.35;;
50559;SDS011;36510;52.610;13.468;2022-10-16T21:41:11;11.75;;;8.68;;
50559;SDS011;36510;52.610;13.468;2022-10-16T21:46:21;11.45;;;8.13;;
50559;SDS011;36510;52.610;13.468;2022-10-16T21:51:13;11.30;;;8.30;;
50559;SDS011;36510;52.610;13.468;2022-10-16T21:56:04;10.43;;;8.65;;
50559;SDS011;36510;52.610;13.468;2022-10-16T22:01:05;11.40;;;8.35;;
50559;SDS011;36510;52.610;13.468;2022-10-16T22:05:59;10.95;;;8.30;;
50559;SDS011;36510;52.610;13.468;2022-10-16T22:10:51;10.68;;;7.97;;
50559;SDS011;36510;52.610;13.468;2022-10-16T22:15:50;9.32;;;7.45;;
50559;SDS011;36510;52.610;13.468;2022-10-16T22:20:44;9.70;;;7.57;;
50559;SDS011;36510;52.610;13.468;2022-10-16T22:25:35;9.45;;;7.55;;
50559;SDS011;36510;52.610;13.468;2022-10-16T22:30:26;10.35;;;7.68;;
50559;SDS011;36510;52.610;13.468;2022-10-16T22:35:16;10.65;;;6.95;;
50559;SDS011;36510;52.610;13.468;2022-10-16T22:40:07;8.52;;;7.25;;
50559;SDS011;36510;52.610;13.468;2022-10-16T22:44:58;10.68;;;8.02;;
50559;SDS011;36510;52.610;13.468;2022-10-16T22:49:48;9.65;;;7.82;;
50559;SDS011;36510;52.610;13.468;2022-10-16T22:54:39;8.90;;;7.43;;
50559;SDS011;36510;52.610;13.468;2022-10-16T22:59:29;10.70;;;7.68;;
50559;SDS011;36510;52.610;13.468;2022-10-16T23:04:20;8.15;;;6.88;;
50559;SDS011;36510;52.610;13.468;2022-10-16T23:09:10;9.38;;;7.85;;
50559;SDS011;36510;52.610;13.468;2022-10-16T23:14:00;9.45;;;7.78;;
50559;SDS011;36510;52.610;13.468;2022-10-16T23:18:51;8.00;;;6.75;;
50559;SDS011;36510;52.610;13.468;2022-10-16T23:23:42;10.15;;;7.50;;
50559;SDS011;36510;52.610;13.468;2022-10-16T23:28:33;8.10;;;6.60;;
50559;SDS011;36510;52.610;13.468;2022-10-16T23:33:23;8.85;;;6.82;;
50559;SDS011;36510;52.610;13.468;2022-10-16T23:38:13;7.05;;;6.30;;
50559;SDS011;36510;52.610;13.468;2022-10-16T23:43:04;8.43;;;6.88;;
50559;SDS011;36510;52.610;13.468;2022-10-16T23:47:54;6.82;;;6.13;;
50559;SDS011;36510;52.610;13.468;2022-10-16T23:52:45;7.05;;;6.43;;
50559;SDS011;36510;52.610;13.468;2022-10-16T23:57:35;6.95;;;6.25;;
